createdAt,value
2023-04-15T00:00:17.328Z,21.22
2023-04-15T00:02:50.570Z,21.51
2023-04-15T00:05:22.203Z,21.43
2023-04-15T00:07:53.311Z,21.24
2023-04-15T00:10:24.925Z,21.26
2023-04-15T00:12:56.276Z,21.36
2023-04-15T00:15:28.803Z,21.56
2023-04-15T00:18:00.490Z,21.41
2023-04-15T00:20:31.914Z,22.01
2023-04-15T00:23:04.324Z,22.73
2023-04-15T00:25:35.748Z,22.47
2023-04-15T00:28:07.140Z,23.31
2023-04-15T00:30:38.478Z,21.41
2023-04-15T00:33:10.128Z,21.30
2023-04-15T00:35:41.295Z,20.99
2023-04-15T00:38:12.904Z,21.15
2023-04-15T00:40:45.810Z,20.89
2023-04-15T00:43:17.956Z,20.74
2023-04-15T00:45:49.329Z,21.01
2023-04-15T00:48:21.238Z,21.27
2023-04-15T00:50:52.690Z,21.21
2023-04-15T00:53:23.980Z,21.36
2023-04-15T00:55:55.793Z,21.84
2023-04-15T00:58:29.715Z,21.87
2023-04-15T01:01:01.569Z,22.56
2023-04-15T01:03:34.416Z,23.37
2023-04-15T01:06:06.347Z,21.73
2023-04-15T01:08:37.877Z,21.89
2023-04-15T01:11:09.658Z,22.19
2023-04-15T01:13:41.896Z,22.75
2023-04-15T01:16:14.668Z,22.52
2023-04-15T01:18:46.541Z,23.05
2023-04-15T01:21:17.873Z,22.86
2023-04-15T01:23:50.868Z,23.32
2023-04-15T01:26:21.724Z,22.51
2023-04-15T01:28:53.461Z,22.28
2023-04-15T01:31:24.673Z,22.20
2023-04-15T01:33:55.972Z,22.29
2023-04-15T01:36:45.475Z,22.65
2023-04-15T01:39:17.885Z,21.70
2023-04-15T01:41:48.709Z,21.59
2023-04-15T01:44:21.446Z,21.89
2023-04-15T01:46:54.240Z,22.20
2023-04-15T01:49:27.427Z,21.73
2023-04-15T01:51:59.907Z,21.52
2023-04-15T01:54:32.397Z,21.25
2023-04-15T01:57:06.995Z,21.22
2023-04-15T01:59:39.967Z,21.51
2023-04-15T02:02:13.030Z,21.76
2023-04-15T02:04:46.365Z,21.82
2023-04-15T02:07:19.254Z,21.52
2023-04-15T02:09:51.718Z,21.46
2023-04-15T02:12:24.170Z,21.56
2023-04-15T02:14:57.762Z,21.17
2023-04-15T02:17:30.866Z,21.28
2023-04-15T02:20:03.810Z,21.51
2023-04-15T02:22:37.498Z,21.51
2023-04-15T02:25:10.769Z,21.49
2023-04-15T02:27:43.487Z,21.36
2023-04-15T02:30:16.688Z,21.36
2023-04-15T02:32:50.553Z,21.22
2023-04-15T02:35:23.071Z,20.77
2023-04-15T02:37:56.711Z,21.03
2023-04-15T02:40:29.430Z,20.64
2023-04-15T02:43:02.378Z,20.79
2023-04-15T02:45:35.699Z,21.01
2023-04-15T02:48:10.114Z,21.10
2023-04-15T02:50:43.213Z,20.57
2023-04-15T02:53:19.062Z,20.49
2023-04-15T02:55:52.286Z,20.17
2023-04-15T02:58:25.315Z,20.56
2023-04-15T03:00:58.181Z,20.42
2023-04-15T03:03:30.942Z,20.33
2023-04-15T03:06:03.871Z,20.19
2023-04-15T03:08:36.728Z,20.27
2023-04-15T03:11:13.325Z,20.53
2023-04-15T03:13:45.979Z,20.52
2023-04-15T03:16:30.936Z,20.25
2023-04-15T03:19:04.192Z,20.23
2023-04-15T03:21:38.670Z,20.35
2023-04-15T03:24:12.241Z,20.12
2023-04-15T03:26:44.787Z,20.45
2023-04-15T03:29:21.005Z,20.50
2023-04-15T03:31:54.299Z,20.29
2023-04-15T03:34:27.121Z,20.30
2023-04-15T03:36:59.875Z,20.11
2023-04-15T03:39:33.257Z,20.07
2023-04-15T03:42:06.360Z,20.19
2023-04-15T03:44:39.125Z,19.97
2023-04-15T03:47:11.882Z,20.10
2023-04-15T03:49:44.796Z,20.25
2023-04-15T03:52:17.538Z,20.27
2023-04-15T03:54:50.060Z,20.05
2023-04-15T03:57:22.702Z,20.13
2023-04-15T03:59:55.874Z,20.06
2023-04-15T04:02:29.678Z,19.98
2023-04-15T04:05:02.499Z,19.68
2023-04-15T04:07:35.415Z,19.78
2023-04-15T04:10:08.755Z,19.73
2023-04-15T04:12:41.086Z,19.95
2023-04-15T04:15:13.899Z,19.72
2023-04-15T04:17:46.468Z,19.78
2023-04-15T04:20:19.126Z,19.61
2023-04-15T04:22:51.858Z,19.61
2023-04-15T04:25:24.515Z,19.63
2023-04-15T04:27:57.439Z,19.49
2023-04-15T04:30:29.958Z,19.38
2023-04-15T04:33:02.599Z,19.40
2023-04-15T04:35:36.415Z,19.39
2023-04-15T04:38:09.339Z,19.22
2023-04-15T04:40:42.757Z,19.09
2023-04-15T04:43:16.266Z,19.15
2023-04-15T04:45:48.996Z,19.16
2023-04-15T04:48:21.558Z,19.26
2023-04-15T04:50:54.680Z,19.03
2023-04-15T04:53:27.150Z,19.14
2023-04-15T04:55:59.886Z,18.96
2023-04-15T04:58:32.588Z,18.88
2023-04-15T05:01:05.963Z,18.72
2023-04-15T05:03:40.903Z,18.77
2023-04-15T05:06:13.345Z,18.81
2023-04-15T05:08:46.017Z,18.71
2023-04-15T05:11:18.537Z,18.76
2023-04-15T05:13:51.112Z,18.67
2023-04-15T05:16:23.843Z,18.64
2023-04-15T05:18:56.484Z,18.76
2023-04-15T05:21:29.313Z,18.63
2023-04-15T05:24:02.207Z,18.58
2023-04-15T05:26:34.584Z,18.37
2023-04-15T05:29:07.227Z,18.42
2023-04-15T05:31:40.850Z,18.25
2023-04-15T05:34:13.678Z,18.33
2023-04-15T05:36:46.359Z,18.39
2023-04-15T05:39:18.816Z,18.31
2023-04-15T05:41:51.481Z,18.25
2023-04-15T05:44:24.026Z,18.18
2023-04-15T05:46:56.489Z,18.21
2023-04-15T05:49:29.115Z,18.31
2023-04-15T05:52:02.164Z,18.18
2023-04-15T05:54:34.868Z,18.05
2023-04-15T05:57:06.972Z,18.12
2023-04-15T05:59:40.459Z,18.01
2023-04-15T06:02:13.501Z,18.04
2023-04-15T06:04:45.832Z,18.01
2023-04-15T06:07:18.184Z,17.80
2023-04-15T06:09:51.005Z,17.78
2023-04-15T06:12:23.659Z,17.78
2023-04-15T06:14:56.482Z,17.75
2023-04-15T06:17:29.511Z,17.72
2023-04-15T06:20:01.820Z,17.58
2023-04-15T06:22:34.380Z,17.78
2023-04-15T06:25:07.266Z,17.64
2023-04-15T06:27:40.536Z,17.71
2023-04-15T06:30:13.677Z,17.64
2023-04-15T06:32:46.326Z,17.60
2023-04-15T06:35:19.050Z,17.59
2023-04-15T06:37:51.456Z,17.61
2023-04-15T06:40:23.765Z,17.61
2023-04-15T06:42:56.230Z,17.58
2023-04-15T06:45:28.847Z,17.62
2023-04-15T06:48:01.511Z,17.65
2023-04-15T06:50:34.204Z,17.60
2023-04-15T06:53:06.418Z,17.51
2023-04-15T06:55:38.947Z,17.48
2023-04-15T06:58:11.373Z,17.58
2023-04-15T07:00:43.881Z,17.45
2023-04-15T07:03:16.819Z,17.54
2023-04-15T07:05:49.250Z,17.45
2023-04-15T07:08:22.448Z,17.35
2023-04-15T07:10:55.676Z,17.26
2023-04-15T07:13:28.670Z,17.33
2023-04-15T07:16:01.502Z,17.26
2023-04-15T07:18:34.219Z,17.23
2023-04-15T07:21:07.344Z,17.35
2023-04-15T07:23:39.743Z,17.26
2023-04-15T07:26:12.774Z,17.25
2023-04-15T07:28:45.322Z,17.31
2023-04-15T07:31:18.672Z,17.27
2023-04-15T07:33:51.266Z,17.30
2023-04-15T07:36:23.929Z,17.32
2023-04-15T07:38:56.783Z,17.38
2023-04-15T07:41:29.401Z,17.36
2023-04-15T07:44:02.031Z,17.42
2023-04-15T07:46:36.208Z,17.32
2023-04-15T07:49:12.188Z,17.36
2023-04-15T07:51:45.773Z,17.35
2023-04-15T07:54:19.372Z,17.33
2023-04-15T07:56:52.017Z,17.36
2023-04-15T07:59:24.483Z,17.32
2023-04-15T08:01:56.694Z,17.29
2023-04-15T08:04:30.247Z,17.23
2023-04-15T08:07:02.680Z,17.28
2023-04-15T08:09:34.999Z,17.33
2023-04-15T08:12:07.778Z,17.31
2023-04-15T08:14:40.434Z,17.32
2023-04-15T08:17:12.541Z,17.34
2023-04-15T08:19:44.728Z,17.32
2023-04-15T08:22:18.460Z,17.33
2023-04-15T08:24:53.582Z,17.30
2023-04-15T08:27:26.075Z,17.34
2023-04-15T08:29:59.151Z,17.24
2023-04-15T08:32:31.565Z,17.32
2023-04-15T08:35:03.932Z,17.23
2023-04-15T08:37:36.873Z,17.17
2023-04-15T08:40:10.767Z,17.23
2023-04-15T08:42:51.903Z,17.19
2023-04-15T08:45:24.969Z,17.14
2023-04-15T08:47:58.789Z,17.14
2023-04-15T08:50:33.146Z,17.12
2023-04-15T08:53:05.528Z,17.07
2023-04-15T08:55:39.468Z,17.05
2023-04-15T08:58:13.161Z,17.11
2023-04-15T09:00:45.700Z,17.14
2023-04-15T09:03:19.260Z,17.10
2023-04-15T09:05:53.402Z,17.17
2023-04-15T09:08:25.842Z,17.12
2023-04-15T09:10:58.377Z,17.10
2023-04-15T09:13:31.776Z,17.07
2023-04-15T09:16:10.841Z,16.99
2023-04-15T09:18:44.636Z,17.02
2023-04-15T09:21:19.078Z,16.99
2023-04-15T09:23:59.956Z,16.95
2023-04-15T09:26:42.348Z,16.94
2023-04-15T09:29:20.047Z,16.91
2023-04-15T09:31:52.921Z,16.82
2023-04-15T09:34:38.707Z,16.78
2023-04-15T09:37:12.967Z,16.84
2023-04-15T09:39:54.534Z,16.81
2023-04-15T09:42:28.263Z,16.87
2023-04-15T09:45:14.102Z,16.78
2023-04-15T09:47:47.205Z,16.74
2023-04-15T09:50:20.691Z,16.79
2023-04-15T09:52:53.174Z,16.88
2023-04-15T09:55:25.581Z,16.79
2023-04-15T09:57:58.028Z,16.76
2023-04-15T10:00:32.380Z,16.76
2023-04-15T10:03:06.517Z,16.84
2023-04-15T10:05:39.953Z,16.85
2023-04-15T10:08:12.955Z,16.83
2023-04-15T10:10:46.427Z,16.91
2023-04-15T10:13:26.938Z,16.88
2023-04-15T10:16:09.033Z,16.88
2023-04-15T10:18:46.268Z,16.95
2023-04-15T10:21:20.150Z,16.93
2023-04-15T10:23:53.734Z,16.96
2023-04-15T10:26:26.992Z,16.96
2023-04-15T10:29:00.809Z,16.94
2023-04-15T10:31:33.905Z,16.95
2023-04-15T10:34:08.071Z,16.87
2023-04-15T10:36:41.075Z,16.82
2023-04-15T10:39:36.560Z,16.81
2023-04-15T10:42:19.744Z,16.79
2023-04-15T10:44:54.015Z,16.78
2023-04-15T10:47:26.912Z,16.84
2023-04-15T10:50:04.114Z,16.83
2023-04-15T10:52:35.302Z,16.75
2023-04-15T10:55:13.264Z,16.81
2023-04-15T10:57:46.409Z,16.73
2023-04-15T11:00:21.264Z,16.69
2023-04-15T11:03:09.861Z,16.67
2023-04-15T11:05:45.386Z,16.68
2023-04-15T11:08:18.711Z,16.66
2023-04-15T11:10:52.806Z,16.61
2023-04-15T11:13:28.666Z,16.51
2023-04-15T11:16:02.991Z,16.62
2023-04-15T11:18:36.334Z,16.54
2023-04-15T11:21:10.841Z,16.47
2023-04-15T11:23:51.047Z,16.45
2023-04-15T11:26:28.869Z,16.44
2023-04-15T11:29:02.981Z,16.37
2023-04-15T11:31:35.550Z,16.36
2023-04-15T11:34:08.647Z,16.37
2023-04-15T11:36:41.642Z,16.36
2023-04-15T11:39:14.034Z,16.28
2023-04-15T11:41:46.640Z,16.32
2023-04-15T11:44:20.309Z,16.24
2023-04-15T11:46:53.318Z,16.11
2023-04-15T11:49:32.769Z,16.08
2023-04-15T11:52:03.998Z,16.12
2023-04-15T11:54:35.077Z,16.05
2023-04-15T11:57:06.446Z,16.03
2023-04-15T11:59:47.603Z,16.08
2023-04-15T12:02:19.648Z,16.18
2023-04-15T12:04:50.923Z,16.11
2023-04-15T12:07:24.134Z,16.02
2023-04-15T12:09:59.908Z,16.04
2023-04-15T12:12:32.446Z,16.01
2023-04-15T12:15:03.989Z,15.96
2023-04-15T12:17:51.312Z,15.91
2023-04-15T12:20:28.242Z,15.89
2023-04-15T12:23:08.568Z,15.83
2023-04-15T12:25:40.080Z,15.82
2023-04-15T12:28:14.412Z,15.81
2023-04-15T12:30:55.766Z,15.90
2023-04-15T12:33:34.806Z,15.91
2023-04-15T12:36:07.337Z,16.05
2023-04-15T12:38:38.595Z,16.08
2023-04-15T12:41:09.590Z,16.14
2023-04-15T12:43:40.954Z,16.12
2023-04-15T12:46:12.363Z,16.13
2023-04-15T12:48:43.665Z,16.21
2023-04-15T12:51:15.308Z,16.18
2023-04-15T12:53:46.471Z,16.08
2023-04-15T12:56:21.480Z,16.07
2023-04-15T12:58:53.196Z,16.02
2023-04-15T13:01:24.819Z,16.03
2023-04-15T13:03:56.385Z,16.02
2023-04-15T13:06:27.902Z,15.92
2023-04-15T13:08:59.529Z,15.88
2023-04-15T13:11:38.127Z,15.79
2023-04-15T13:14:11.282Z,15.73
2023-04-15T13:16:42.910Z,15.69
2023-04-15T13:19:13.557Z,15.68
2023-04-15T13:21:45.010Z,15.80
2023-04-15T13:24:16.475Z,15.76
2023-04-15T13:26:50.129Z,15.72
2023-04-15T13:29:21.744Z,15.81
2023-04-15T13:31:53.155Z,15.66
2023-04-15T13:34:24.775Z,15.63
2023-04-15T13:36:56.126Z,15.56
2023-04-15T13:39:28.140Z,15.57
2023-04-15T13:41:59.963Z,15.50
2023-04-15T13:44:31.110Z,15.53
2023-04-15T13:47:02.419Z,15.49
2023-04-15T13:49:33.937Z,15.47
2023-04-15T13:52:05.305Z,15.48
2023-04-15T13:54:37.749Z,15.46
2023-04-15T13:57:09.522Z,15.40
2023-04-15T13:59:40.856Z,15.41
2023-04-15T14:02:12.979Z,15.36
2023-04-15T14:04:44.779Z,15.47
2023-04-15T14:07:16.490Z,15.46
2023-04-15T14:09:47.930Z,15.37
2023-04-15T14:12:19.953Z,15.32
2023-04-15T14:14:51.441Z,15.36
2023-04-15T14:17:22.545Z,15.33
2023-04-15T14:19:54.114Z,15.30
2023-04-15T14:22:25.386Z,15.35
2023-04-15T14:24:57.055Z,15.30
2023-04-15T14:27:28.548Z,15.26
2023-04-15T14:30:00.545Z,15.27
2023-04-15T14:32:34.818Z,15.27
2023-04-15T14:35:07.213Z,15.25
2023-04-15T14:37:38.701Z,15.19
2023-04-15T14:40:10.632Z,15.23
2023-04-15T14:42:42.152Z,15.16
2023-04-15T14:45:13.774Z,15.09
2023-04-15T14:47:45.301Z,15.12
2023-04-15T14:50:16.460Z,15.10
2023-04-15T14:52:48.023Z,15.06
2023-04-15T14:55:19.471Z,15.16
2023-04-15T14:57:50.821Z,15.19
2023-04-15T15:00:22.377Z,15.17
2023-04-15T15:02:53.768Z,15.20
2023-04-15T15:05:25.261Z,15.23
2023-04-15T15:07:56.396Z,15.33
2023-04-15T15:10:34.652Z,15.41
2023-04-15T15:13:20.730Z,15.42
2023-04-15T15:15:52.038Z,15.38
2023-04-15T15:18:23.557Z,15.35
2023-04-15T15:20:55.049Z,15.35
2023-04-15T15:23:26.297Z,15.36
2023-04-15T15:25:58.092Z,15.31
2023-04-15T15:28:29.851Z,15.36
2023-04-15T15:31:01.467Z,15.43
2023-04-15T15:33:32.889Z,15.41
2023-04-15T15:36:03.962Z,15.45
2023-04-15T15:38:35.388Z,15.50
2023-04-15T15:41:07.373Z,15.37
2023-04-15T15:43:38.557Z,15.38
2023-04-15T15:46:10.358Z,15.42
2023-04-15T15:48:41.717Z,15.43
2023-04-15T15:51:13.186Z,15.37
2023-04-15T15:53:46.275Z,15.28
2023-04-15T15:56:17.983Z,15.31
2023-04-15T15:58:49.387Z,15.31
2023-04-15T16:01:20.666Z,15.30
2023-04-15T16:03:52.475Z,15.40
2023-04-15T16:06:23.596Z,15.38
2023-04-15T16:08:54.664Z,15.34
2023-04-15T16:11:26.280Z,15.35
2023-04-15T16:13:58.447Z,15.43
2023-04-15T16:16:31.480Z,15.30
2023-04-15T16:19:02.702Z,15.36
2023-04-15T16:21:34.435Z,15.36
2023-04-15T16:24:05.658Z,15.31
2023-04-15T16:26:36.854Z,15.34
2023-04-15T16:29:08.216Z,15.23
2023-04-15T16:31:41.544Z,15.20
2023-04-15T16:34:13.612Z,15.25
2023-04-15T16:36:45.156Z,15.24
2023-04-15T16:39:16.552Z,15.25
2023-04-15T16:41:47.608Z,15.20
2023-04-15T16:44:19.415Z,15.23
2023-04-15T16:46:50.534Z,15.22
2023-04-15T16:49:22.020Z,15.15
2023-04-15T16:51:54.632Z,15.10
2023-04-15T16:54:25.942Z,15.04
2023-04-15T16:57:03.457Z,15.05
2023-04-15T16:59:34.794Z,15.09
2023-04-15T17:02:06.397Z,15.05
2023-04-15T17:04:37.943Z,14.96
2023-04-15T17:07:10.257Z,15.01
2023-04-15T17:09:42.331Z,15.10
2023-04-15T17:12:18.554Z,15.09
2023-04-15T17:14:50.577Z,15.11
2023-04-15T17:17:22.810Z,15.01
2023-04-15T17:19:55.378Z,15.04
2023-04-15T17:22:27.879Z,15.04
2023-04-15T17:25:00.458Z,15.05
2023-04-15T17:27:36.782Z,14.91
2023-04-15T17:30:16.443Z,14.93
2023-04-15T17:34:00.050Z,14.94
2023-04-15T17:36:20.069Z,14.98
2023-04-15T17:39:11.082Z,15.00
2023-04-15T17:42:01.893Z,14.92
2023-04-15T17:44:52.738Z,15.01
2023-04-15T17:47:43.612Z,14.96
2023-04-15T17:50:34.564Z,15.01
2023-04-15T17:53:25.597Z,15.11
2023-04-15T17:56:16.836Z,15.24
2023-04-15T17:59:08.482Z,15.32
2023-04-15T18:02:01.225Z,15.43
2023-04-15T18:04:52.432Z,15.39
2023-04-15T18:07:43.292Z,15.34
2023-04-15T18:10:36.306Z,15.17
2023-04-15T18:13:27.366Z,15.05
2023-04-15T18:16:18.736Z,14.99
2023-04-15T18:19:09.593Z,14.96
2023-04-15T18:21:40.877Z,15.01
2023-04-15T18:24:12.617Z,15.02
2023-04-15T18:26:44.697Z,15.01
2023-04-15T18:29:16.932Z,15.00
2023-04-15T18:31:48.109Z,15.12
2023-04-15T18:34:19.506Z,15.20
2023-04-15T18:36:50.720Z,15.26
2023-04-15T18:39:22.083Z,15.19
2023-04-15T18:41:53.312Z,15.15
2023-04-15T18:44:24.284Z,15.19
2023-04-15T18:46:55.596Z,15.29
2023-04-15T18:49:28.814Z,15.25
2023-04-15T18:51:59.830Z,15.24
2023-04-15T18:54:31.064Z,15.23
2023-04-15T18:57:02.578Z,15.17
2023-04-15T18:59:35.143Z,15.22
2023-04-15T19:02:08.986Z,15.21
2023-04-15T19:04:40.444Z,15.18
2023-04-15T19:07:11.820Z,15.24
2023-04-15T19:09:43.916Z,15.31
2023-04-15T19:12:15.295Z,15.29
2023-04-15T19:14:46.385Z,15.32
2023-04-15T19:17:18.883Z,15.40
2023-04-15T19:19:50.199Z,15.51
2023-04-15T19:22:21.686Z,15.49
2023-04-15T19:24:53.914Z,15.41
2023-04-15T19:27:26.948Z,15.36
2023-04-15T19:29:58.288Z,15.34
2023-04-15T19:32:29.628Z,15.34
2023-04-15T19:35:03.254Z,15.34
2023-04-15T19:37:34.496Z,15.45
2023-04-15T19:40:05.589Z,15.50
2023-04-15T19:42:37.212Z,15.61
2023-04-15T19:45:10.832Z,15.75
2023-04-15T19:47:47.474Z,16.03
2023-04-15T19:50:19.277Z,16.12
2023-04-15T19:52:50.221Z,16.25
2023-04-15T19:55:21.960Z,16.51
2023-04-15T19:57:53.230Z,16.63
2023-04-15T20:00:24.452Z,16.67
2023-04-15T20:02:58.375Z,16.85
2023-04-15T20:05:31.580Z,16.91
2023-04-15T20:08:05.297Z,17.03
2023-04-15T20:10:36.989Z,17.04
2023-04-15T20:13:07.889Z,17.12
2023-04-15T20:15:40.652Z,17.14
2023-04-15T20:18:15.315Z,17.23
2023-04-15T20:20:46.856Z,17.24
2023-04-15T20:23:18.157Z,17.30
2023-04-15T20:25:49.149Z,17.38
2023-04-15T20:28:20.836Z,17.42
2023-04-15T20:30:51.690Z,17.48
2023-04-15T20:33:23.810Z,17.59
2023-04-15T20:35:55.481Z,17.63
2023-04-15T20:38:27.206Z,17.66
2023-04-15T20:40:59.656Z,17.87
2023-04-15T20:43:31.219Z,17.92
2023-04-15T20:46:13.426Z,17.94
2023-04-15T20:48:51.233Z,18.03
2023-04-15T20:51:22.529Z,18.25
2023-04-15T20:53:53.837Z,18.46
2023-04-15T20:56:25.541Z,18.46
2023-04-15T20:58:56.965Z,18.64
2023-04-15T21:01:28.441Z,18.85
2023-04-15T21:04:00.460Z,18.68
2023-04-15T21:06:32.304Z,18.47
2023-04-15T21:09:02.884Z,18.57
2023-04-15T21:11:53.278Z,18.33
2023-04-15T21:14:26.258Z,18.46
2023-04-15T21:16:59.179Z,18.51
2023-04-15T21:19:31.130Z,18.64
2023-04-15T21:22:02.574Z,18.73
2023-04-15T21:24:33.651Z,19.10
2023-04-15T21:27:04.832Z,19.31
2023-04-15T21:29:36.799Z,19.26
2023-04-15T21:32:08.220Z,19.11
2023-04-15T21:34:39.184Z,18.96
2023-04-15T21:37:10.482Z,18.96
2023-04-15T21:39:41.743Z,18.91
2023-04-15T21:42:13.361Z,19.31
2023-04-15T21:44:44.545Z,19.56
2023-04-15T21:47:15.619Z,19.26
2023-04-15T21:49:47.582Z,19.18
2023-04-15T21:52:19.285Z,19.26
2023-04-15T21:54:50.871Z,19.54
2023-04-15T21:57:21.910Z,19.97
2023-04-15T21:59:53.111Z,19.58
2023-04-15T22:02:24.577Z,19.68
2023-04-15T22:04:56.117Z,19.17
2023-04-15T22:07:27.875Z,19.14
2023-04-15T22:09:58.436Z,19.05
2023-04-15T22:12:29.544Z,19.27
2023-04-15T22:15:01.064Z,19.43
2023-04-15T22:17:36.414Z,19.95
2023-04-15T22:20:09.136Z,19.85
2023-04-15T22:22:43.360Z,20.16
2023-04-15T22:25:17.415Z,20.23
2023-04-15T22:27:48.868Z,19.99
2023-04-15T22:30:20.539Z,19.88
2023-04-15T22:32:51.923Z,19.69
2023-04-15T22:35:23.169Z,19.89
2023-04-15T22:37:55.342Z,19.52
2023-04-15T22:40:27.272Z,19.56
2023-04-15T22:42:58.428Z,19.61
2023-04-15T22:45:29.364Z,19.88
2023-04-15T22:48:00.810Z,20.07
2023-04-15T22:50:32.206Z,19.98
2023-04-15T22:53:03.773Z,20.22
2023-04-15T22:55:35.074Z,20.93
2023-04-15T22:58:06.302Z,21.33
2023-04-15T23:00:37.775Z,20.91
2023-04-15T23:03:09.577Z,21.58
2023-04-15T23:05:42.481Z,21.82
2023-04-15T23:08:13.976Z,21.77
2023-04-15T23:10:46.027Z,21.90
2023-04-15T23:13:17.949Z,21.71
2023-04-15T23:15:49.421Z,21.59
2023-04-15T23:18:20.729Z,21.38
2023-04-15T23:20:52.474Z,21.05
2023-04-15T23:23:23.766Z,20.95
2023-04-15T23:25:54.998Z,21.81
2023-04-15T23:28:26.455Z,22.48
2023-04-15T23:31:00.307Z,21.89
2023-04-15T23:33:34.144Z,21.42
2023-04-15T23:36:06.592Z,20.91
2023-04-15T23:38:37.837Z,20.35
2023-04-15T23:41:08.771Z,20.67
2023-04-15T23:43:39.923Z,20.91
2023-04-15T23:46:11.437Z,20.81
2023-04-15T23:48:43.408Z,21.27
2023-04-15T23:51:14.883Z,21.64
2023-04-15T23:53:45.956Z,21.55
2023-04-15T23:56:17.238Z,21.71
2023-04-15T23:58:48.617Z,21.12
